sensor_id;sensor_type;location;lat;lon;timestamp;temperature;humidity
18229;DHT22;9239;50.932;3.142;2023-05-24T00:00:10;10.30;99.90
18229;DHT22;9239;50.932;3.142;2023-05-24T00:02:38;10.30;99.90
18229;DHT22;9239;50.932;3.142;2023-05-24T00:05:07;10.20;99.90
18229;DHT22;9239;50.932;3.142;2023-05-24T00:07:34;10.10;99.90
18229;DHT22;9239;50.932;3.142;2023-05-24T00:10:02;10.10;99.90
18229;DHT22;9239;50.932;3.142;2023-05-24T00:12:29;10.10;99.90
18229;DHT22;9239;50.932;3.142;2023-05-24T00:14:56;10.10;99.90
18229;DHT22;9239;50.932;3.142;2023-05-24T00:17:25;10.10;99.90
18229;DHT22;9239;50.932;3.142;2023-05-24T00:19:52;10.00;99.90
18229;DHT22;9239;50.932;3.142;2023-05-24T00:22:19;10.00;99.90
18229;DHT22;9239;50.932;3.142;2023-05-24T00:24:46;10.00;99.90
18229;DHT22;9239;50.932;3.142;2023-05-24T00:27:13;10.10;99.90
18229;DHT22;9239;50.932;3.142;2023-05-24T00:29:40;10.10;99.90
18229;DHT22;9239;50.932;3.142;2023-05-24T00:32:07;10.10;99.90
18229;DHT22;9239;50.932;3.142;2023-05-24T00:34:36;9.90;99.90
18229;DHT22;9239;50.932;3.142;2023-05-24T00:37:03;10.00;99.90
18229;DHT22;9239;50.932;3.142;2023-05-24T00:39:31;10.00;99.90
18229;DHT22;9239;50.932;3.142;2023-05-24T00:41:59;10.00;99.90
18229;DHT22;9239;50.932;3.142;2023-05-24T00:44:26;10.00;99.90
18229;DHT22;9239;50.932;3.142;2023-05-24T00:46:52;9.90;99.90
18229;DHT22;9239;50.932;3.142;2023-05-24T00:49:20;9.80;99.90
18229;DHT22;9239;50.932;3.142;2023-05-24T00:51:52;9.80;99.90
18229;DHT22;9239;50.932;3.142;2023-05-24T00:54:19;9.70;99.90
18229;DHT22;9239;50.932;3.142;2023-05-24T00:56:47;9.80;99.90
18229;DHT22;9239;50.932;3.142;2023-05-24T00:59:14;9.80;99.90
18229;DHT22;9239;50.932;3.142;2023-05-24T01:01:41;9.80;99.90
18229;DHT22;9239;50.932;3.142;2023-05-24T01:04:11;9.80;99.90
18229;DHT22;9239;50.932;3.142;2023-05-24T01:06:44;9.80;99.90
18229;DHT22;9239;50.932;3.142;2023-05-24T01:09:24;9.90;99.90
18229;DHT22;9239;50.932;3.142;2023-05-24T01:12:05;9.90;99.90
18229;DHT22;9239;50.932;3.142;2023-05-24T01:14:40;9.90;99.90
18229;DHT22;9239;50.932;3.142;2023-05-24T01:17:13;9.90;99.90
18229;DHT22;9239;50.932;3.142;2023-05-24T01:19:50;9.80;99.90
18229;DHT22;9239;50.932;3.142;2023-05-24T01:25:22;9.60;99.90
18229;DHT22;9239;50.932;3.142;2023-05-24T01:27:53;9.60;99.90
18229;DHT22;9239;50.932;3.142;2023-05-24T01:30:20;9.60;99.90
18229;DHT22;9239;50.932;3.142;2023-05-24T01:32:47;9.60;99.90
18229;DHT22;9239;50.932;3.142;2023-05-24T01:35:14;9.70;99.90
18229;DHT22;9239;50.932;3.142;2023-05-24T01:37:41;9.80;99.90
18229;DHT22;9239;50.932;3.142;2023-05-24T01:40:09;9.90;99.90
18229;DHT22;9239;50.932;3.142;2023-05-24T01:42:43;9.90;99.90
18229;DHT22;9239;50.932;3.142;2023-05-24T01:45:16;9.80;99.90
18229;DHT22;9239;50.932;3.142;2023-05-24T01:47:57;9.70;99.90
18229;DHT22;9239;50.932;3.142;2023-05-24T01:50:30;9.60;99.90
18229;DHT22;9239;50.932;3.142;2023-05-24T01:53:02;9.60;99.90
18229;DHT22;9239;50.932;3.142;2023-05-24T01:55:30;9.60;99.90
18229;DHT22;9239;50.932;3.142;2023-05-24T01:58:01;9.50;99.90
18229;DHT22;9239;50.932;3.142;2023-05-24T02:00:30;9.50;99.90
18229;DHT22;9239;50.932;3.142;2023-05-24T02:02:58;9.40;99.90
18229;DHT22;9239;50.932;3.142;2023-05-24T02:05:26;9.40;99.90
18229;DHT22;9239;50.932;3.142;2023-05-24T02:07:53;9.30;99.90
18229;DHT22;9239;50.932;3.142;2023-05-24T02:10:20;9.30;99.90
18229;DHT22;9239;50.932;3.142;2023-05-24T02:12:47;9.30;99.90
18229;DHT22;9239;50.932;3.142;2023-05-24T02:15:14;9.30;99.90
18229;DHT22;9239;50.932;3.142;2023-05-24T02:17:42;9.30;99.90
18229;DHT22;9239;50.932;3.142;2023-05-24T02:20:11;9.20;99.90
18229;DHT22;9239;50.932;3.142;2023-05-24T02:22:39;9.20;99.90
18229;DHT22;9239;50.932;3.142;2023-05-24T02:25:06;9.20;99.90
18229;DHT22;9239;50.932;3.142;2023-05-24T02:27:33;9.10;99.90
18229;DHT22;9239;50.932;3.142;2023-05-24T02:30:00;9.10;99.90
18229;DHT22;9239;50.932;3.142;2023-05-24T02:32:27;9.10;99.90
18229;DHT22;9239;50.932;3.142;2023-05-24T02:34:55;9.10;99.90
18229;DHT22;9239;50.932;3.142;2023-05-24T02:37:24;9.10;99.90
18229;DHT22;9239;50.932;3.142;2023-05-24T02:39:51;9.10;99.90
18229;DHT22;9239;50.932;3.142;2023-05-24T02:42:18;9.10;99.90
18229;DHT22;9239;50.932;3.142;2023-05-24T02:44:45;9.10;99.90
18229;DHT22;9239;50.932;3.142;2023-05-24T02:47:13;9.10;99.90
18229;DHT22;9239;50.932;3.142;2023-05-24T02:49:40;9.10;99.90
18229;DHT22;9239;50.932;3.142;2023-05-24T02:52:08;9.00;99.90
18229;DHT22;9239;50.932;3.142;2023-05-24T02:54:36;9.00;99.90
18229;DHT22;9239;50.932;3.142;2023-05-24T02:57:03;8.90;99.90
18229;DHT22;9239;50.932;3.142;2023-05-24T02:59:31;8.90;99.90
18229;DHT22;9239;50.932;3.142;2023-05-24T03:01:58;8.90;99.90
18229;DHT22;9239;50.932;3.142;2023-05-24T03:04:25;8.80;99.90
18229;DHT22;9239;50.932;3.142;2023-05-24T03:06:52;8.80;99.90
18229;DHT22;9239;50.932;3.142;2023-05-24T03:09:21;8.80;99.90
18229;DHT22;9239;50.932;3.142;2023-05-24T03:11:48;8.80;99.90
18229;DHT22;9239;50.932;3.142;2023-05-24T03:14:17;8.80;99.90
18229;DHT22;9239;50.932;3.142;2023-05-24T03:16:47;8.90;99.90
18229;DHT22;9239;50.932;3.142;2023-05-24T03:19:14;8.90;99.90
18229;DHT22;9239;50.932;3.142;2023-05-24T03:21:41;8.80;99.90
18229;DHT22;9239;50.932;3.142;2023-05-24T03:24:08;8.70;99.90
18229;DHT22;9239;50.932;3.142;2023-05-24T03:26:39;8.70;99.90
18229;DHT22;9239;50.932;3.142;2023-05-24T03:29:06;8.70;99.90
18229;DHT22;9239;50.932;3.142;2023-05-24T03:31:32;8.70;99.90
18229;DHT22;9239;50.932;3.142;2023-05-24T03:33:59;8.70;99.90
18229;DHT22;9239;50.932;3.142;2023-05-24T03:36:26;8.70;99.90
18229;DHT22;9239;50.932;3.142;2023-05-24T03:38:53;8.60;99.90
18229;DHT22;9239;50.932;3.142;2023-05-24T03:41:22;8.60;99.90
18229;DHT22;9239;50.932;3.142;2023-05-24T03:43:51;8.50;99.90
18229;DHT22;9239;50.932;3.142;2023-05-24T03:46:18;8.50;99.90
18229;DHT22;9239;50.932;3.142;2023-05-24T03:48:45;8.40;99.90
18229;DHT22;9239;50.932;3.142;2023-05-24T03:51:12;8.40;99.90
18229;DHT22;9239;50.932;3.142;2023-05-24T03:53:39;8.40;99.90
18229;DHT22;9239;50.932;3.142;2023-05-24T03:56:06;8.30;99.90
18229;DHT22;9239;50.932;3.142;2023-05-24T03:58:33;8.30;99.90
18229;DHT22;9239;50.932;3.142;2023-05-24T04:01:01;8.30;99.90
18229;DHT22;9239;50.932;3.142;2023-05-24T04:03:28;8.20;99.90
18229;DHT22;9239;50.932;3.142;2023-05-24T04:05:58;8.20;99.90
18229;DHT22;9239;50.932;3.142;2023-05-24T04:08:25;8.30;99.90
18229;DHT22;9239;50.932;3.142;2023-05-24T04:10:52;8.30;99.90
18229;DHT22;9239;50.932;3.142;2023-05-24T04:13:19;8.30;99.90
18229;DHT22;9239;50.932;3.142;2023-05-24T04:15:46;8.30;99.90
18229;DHT22;9239;50.932;3.142;2023-05-24T04:18:15;8.30;99.90
18229;DHT22;9239;50.932;3.142;2023-05-24T04:20:42;8.40;99.90
18229;DHT22;9239;50.932;3.142;2023-05-24T04:23:09;8.40;99.90
18229;DHT22;9239;50.932;3.142;2023-05-24T04:25:36;8.40;99.90
18229;DHT22;9239;50.932;3.142;2023-05-24T04:28:03;8.40;99.90
18229;DHT22;9239;50.932;3.142;2023-05-24T04:30:30;8.40;99.90
18229;DHT22;9239;50.932;3.142;2023-05-24T04:32:57;8.50;99.90
18229;DHT22;9239;50.932;3.142;2023-05-24T04:35:26;8.50;99.90
18229;DHT22;9239;50.932;3.142;2023-05-24T04:37:53;8.50;99.90
18229;DHT22;9239;50.932;3.142;2023-05-24T04:40:20;8.60;99.90
18229;DHT22;9239;50.932;3.142;2023-05-24T04:42:47;8.60;99.90
18229;DHT22;9239;50.932;3.142;2023-05-24T04:45:15;8.60;99.90
18229;DHT22;9239;50.932;3.142;2023-05-24T04:47:42;8.70;99.90
18229;DHT22;9239;50.932;3.142;2023-05-24T04:50:09;8.80;99.90
18229;DHT22;9239;50.932;3.142;2023-05-24T04:52:38;8.90;99.90
18229;DHT22;9239;50.932;3.142;2023-05-24T04:55:05;8.90;99.90
18229;DHT22;9239;50.932;3.142;2023-05-24T04:57:34;9.00;99.90
18229;DHT22;9239;50.932;3.142;2023-05-24T05:00:01;9.10;99.90
18229;DHT22;9239;50.932;3.142;2023-05-24T05:02:29;9.20;99.90
18229;DHT22;9239;50.932;3.142;2023-05-24T05:04:56;9.30;99.90
18229;DHT22;9239;50.932;3.142;2023-05-24T05:07:23;9.50;99.90
18229;DHT22;9239;50.932;3.142;2023-05-24T05:09:51;9.80;99.90
18229;DHT22;9239;50.932;3.142;2023-05-24T05:12:18;10.10;99.90
18229;DHT22;9239;50.932;3.142;2023-05-24T05:14:46;10.60;99.90
18229;DHT22;9239;50.932;3.142;2023-05-24T05:17:13;10.90;99.90
18229;DHT22;9239;50.932;3.142;2023-05-24T05:19:40;11.10;99.90
18229;DHT22;9239;50.932;3.142;2023-05-24T05:22:07;11.20;99.90
18229;DHT22;9239;50.932;3.142;2023-05-24T05:24:34;11.30;99.90
18229;DHT22;9239;50.932;3.142;2023-05-24T05:27:02;11.30;99.90
18229;DHT22;9239;50.932;3.142;2023-05-24T05:29:30;11.20;99.90
18229;DHT22;9239;50.932;3.142;2023-05-24T05:31:57;11.10;99.90
18229;DHT22;9239;50.932;3.142;2023-05-24T05:34:24;11.00;99.90
18229;DHT22;9239;50.932;3.142;2023-05-24T05:36:51;10.90;99.90
18229;DHT22;9239;50.932;3.142;2023-05-24T05:39:18;10.80;99.90
18229;DHT22;9239;50.932;3.142;2023-05-24T05:41:45;10.80;99.90
18229;DHT22;9239;50.932;3.142;2023-05-24T05:44:13;10.80;99.90
18229;DHT22;9239;50.932;3.142;2023-05-24T05:46:40;10.90;99.90
18229;DHT22;9239;50.932;3.142;2023-05-24T05:49:10;11.10;99.90
18229;DHT22;9239;50.932;3.142;2023-05-24T05:51:37;11.20;99.90
18229;DHT22;9239;50.932;3.142;2023-05-24T05:54:05;11.20;99.90
18229;DHT22;9239;50.932;3.142;2023-05-24T05:56:33;11.20;99.90
18229;DHT22;9239;50.932;3.142;2023-05-24T05:59:05;11.30;99.90
18229;DHT22;9239;50.932;3.142;2023-05-24T06:01:33;11.40;99.90
18229;DHT22;9239;50.932;3.142;2023-05-24T06:04:00;11.50;99.90
18229;DHT22;9239;50.932;3.142;2023-05-24T06:06:28;11.60;99.90
18229;DHT22;9239;50.932;3.142;2023-05-24T06:08:55;11.60;99.90
18229;DHT22;9239;50.932;3.142;2023-05-24T06:11:22;11.50;99.90
18229;DHT22;9239;50.932;3.142;2023-05-24T06:13:49;11.40;99.90
18229;DHT22;9239;50.932;3.142;2023-05-24T06:16:16;11.40;99.90
18229;DHT22;9239;50.932;3.142;2023-05-24T06:18:44;11.40;99.90
18229;DHT22;9239;50.932;3.142;2023-05-24T06:21:11;11.50;99.90
18229;DHT22;9239;50.932;3.142;2023-05-24T06:23:38;11.60;99.90
18229;DHT22;9239;50.932;3.142;2023-05-24T06:26:06;11.50;99.90
18229;DHT22;9239;50.932;3.142;2023-05-24T06:28:34;11.60;99.90
18229;DHT22;9239;50.932;3.142;2023-05-24T06:31:01;11.80;99.90
18229;DHT22;9239;50.932;3.142;2023-05-24T06:33:28;11.80;99.90
18229;DHT22;9239;50.932;3.142;2023-05-24T06:35:57;11.90;99.90
18229;DHT22;9239;50.932;3.142;2023-05-24T06:38:24;11.90;99.90
18229;DHT22;9239;50.932;3.142;2023-05-24T06:40:52;11.90;99.90
18229;DHT22;9239;50.932;3.142;2023-05-24T06:43:19;11.90;99.90
18229;DHT22;9239;50.932;3.142;2023-05-24T06:45:46;11.90;99.90
18229;DHT22;9239;50.932;3.142;2023-05-24T06:48:13;11.90;99.90
18229;DHT22;9239;50.932;3.142;2023-05-24T06:50:40;11.90;99.90
18229;DHT22;9239;50.932;3.142;2023-05-24T06:53:09;11.90;99.90
18229;DHT22;9239;50.932;3.142;2023-05-24T06:55:36;12.00;99.90
18229;DHT22;9239;50.932;3.142;2023-05-24T06:58:03;12.10;99.90
18229;DHT22;9239;50.932;3.142;2023-05-24T07:00:31;12.20;99.90
18229;DHT22;9239;50.932;3.142;2023-05-24T07:02:58;12.30;99.90
18229;DHT22;9239;50.932;3.142;2023-05-24T07:05:25;12.40;99.90
18229;DHT22;9239;50.932;3.142;2023-05-24T07:07:52;12.40;99.90
18229;DHT22;9239;50.932;3.142;2023-05-24T07:10:21;12.50;99.90
18229;DHT22;9239;50.932;3.142;2023-05-24T07:12:48;12.60;99.90
18229;DHT22;9239;50.932;3.142;2023-05-24T07:15:14;12.60;99.90
18229;DHT22;9239;50.932;3.142;2023-05-24T07:17:42;12.70;99.90
18229;DHT22;9239;50.932;3.142;2023-05-24T07:20:09;12.50;99.90
18229;DHT22;9239;50.932;3.142;2023-05-24T07:22:38;12.60;99.90
18229;DHT22;9239;50.932;3.142;2023-05-24T07:25:05;12.70;99.90
18229;DHT22;9239;50.932;3.142;2023-05-24T07:27:34;12.80;99.90
18229;DHT22;9239;50.932;3.142;2023-05-24T07:30:01;12.80;99.90
18229;DHT22;9239;50.932;3.142;2023-05-24T07:32:28;12.70;99.90
18229;DHT22;9239;50.932;3.142;2023-05-24T07:34:57;12.70;99.90
18229;DHT22;9239;50.932;3.142;2023-05-24T07:37:24;12.80;99.90
18229;DHT22;9239;50.932;3.142;2023-05-24T07:39:51;13.00;99.90
18229;DHT22;9239;50.932;3.142;2023-05-24T07:42:18;12.90;99.90
18229;DHT22;9239;50.932;3.142;2023-05-24T07:44:47;13.00;99.90
18229;DHT22;9239;50.932;3.142;2023-05-24T07:47:14;12.90;99.90
18229;DHT22;9239;50.932;3.142;2023-05-24T07:49:41;12.90;99.90
18229;DHT22;9239;50.932;3.142;2023-05-24T07:52:08;13.00;99.90
18229;DHT22;9239;50.932;3.142;2023-05-24T07:54:35;13.00;99.90
18229;DHT22;9239;50.932;3.142;2023-05-24T07:57:02;13.00;99.90
18229;DHT22;9239;50.932;3.142;2023-05-24T07:59:30;13.10;99.90
18229;DHT22;9239;50.932;3.142;2023-05-24T08:01:58;13.20;99.90
18229;DHT22;9239;50.932;3.142;2023-05-24T08:04:30;13.20;99.90
18229;DHT22;9239;50.932;3.142;2023-05-24T08:06:57;13.20;99.90
18229;DHT22;9239;50.932;3.142;2023-05-24T08:09:26;13.30;99.90
18229;DHT22;9239;50.932;3.142;2023-05-24T08:11:54;13.30;99.90
18229;DHT22;9239;50.932;3.142;2023-05-24T08:14:21;13.30;99.90
18229;DHT22;9239;50.932;3.142;2023-05-24T08:16:48;13.30;99.90
18229;DHT22;9239;50.932;3.142;2023-05-24T08:19:16;13.50;99.90
18229;DHT22;9239;50.932;3.142;2023-05-24T08:21:44;13.40;99.90
18229;DHT22;9239;50.932;3.142;2023-05-24T08:24:11;13.70;99.90
18229;DHT22;9239;50.932;3.142;2023-05-24T08:26:38;13.80;99.90
18229;DHT22;9239;50.932;3.142;2023-05-24T08:29:05;13.80;99.90
18229;DHT22;9239;50.932;3.142;2023-05-24T08:31:33;13.80;99.90
18229;DHT22;9239;50.932;3.142;2023-05-24T08:34:00;13.90;99.90
18229;DHT22;9239;50.932;3.142;2023-05-24T08:36:28;13.90;99.90
18229;DHT22;9239;50.932;3.142;2023-05-24T08:38:55;14.00;99.90
18229;DHT22;9239;50.932;3.142;2023-05-24T08:41:24;14.10;99.90
18229;DHT22;9239;50.932;3.142;2023-05-24T08:43:52;14.40;99.90
18229;DHT22;9239;50.932;3.142;2023-05-24T08:46:23;14.50;99.90
18229;DHT22;9239;50.932;3.142;2023-05-24T08:48:51;14.60;99.90
18229;DHT22;9239;50.932;3.142;2023-05-24T08:51:18;14.60;99.90
18229;DHT22;9239;50.932;3.142;2023-05-24T08:53:47;14.60;99.90
18229;DHT22;9239;50.932;3.142;2023-05-24T08:56:17;14.70;99.90
18229;DHT22;9239;50.932;3.142;2023-05-24T08:58:45;14.90;99.90
18229;DHT22;9239;50.932;3.142;2023-05-24T09:01:13;15.10;99.90
18229;DHT22;9239;50.932;3.142;2023-05-24T09:03:40;15.30;99.90
18229;DHT22;9239;50.932;3.142;2023-05-24T09:06:10;15.50;99.90
18229;DHT22;9239;50.932;3.142;2023-05-24T09:08:39;15.50;99.90
18229;DHT22;9239;50.932;3.142;2023-05-24T09:11:08;15.60;99.90
18229;DHT22;9239;50.932;3.142;2023-05-24T09:13:36;15.80;99.90
18229;DHT22;9239;50.932;3.142;2023-05-24T09:16:05;16.00;99.90
18229;DHT22;9239;50.932;3.142;2023-05-24T09:18:32;15.80;99.90
18229;DHT22;9239;50.932;3.142;2023-05-24T09:20:59;15.40;99.90
18229;DHT22;9239;50.932;3.142;2023-05-24T09:23:26;15.40;99.90
18229;DHT22;9239;50.932;3.142;2023-05-24T09:25:53;15.10;99.90
18229;DHT22;9239;50.932;3.142;2023-05-24T09:28:21;15.20;99.90
18229;DHT22;9239;50.932;3.142;2023-05-24T09:30:58;15.40;99.90
18229;DHT22;9239;50.932;3.142;2023-05-24T09:33:28;15.40;99.90
18229;DHT22;9239;50.932;3.142;2023-05-24T09:35:57;15.40;99.90
18229;DHT22;9239;50.932;3.142;2023-05-24T09:38:24;15.50;99.90
18229;DHT22;9239;50.932;3.142;2023-05-24T09:41:02;15.40;99.90
18229;DHT22;9239;50.932;3.142;2023-05-24T09:43:31;15.40;99.90
18229;DHT22;9239;50.932;3.142;2023-05-24T09:46:01;15.40;99.90
18229;DHT22;9239;50.932;3.142;2023-05-24T09:48:29;15.40;99.90
18229;DHT22;9239;50.932;3.142;2023-05-24T09:50:59;15.40;99.90
18229;DHT22;9239;50.932;3.142;2023-05-24T09:53:26;15.50;99.90
18229;DHT22;9239;50.932;3.142;2023-05-24T09:55:54;15.60;99.90
18229;DHT22;9239;50.932;3.142;2023-05-24T09:58:21;15.60;99.90
18229;DHT22;9239;50.932;3.142;2023-05-24T10:00:49;15.60;99.90
18229;DHT22;9239;50.932;3.142;2023-05-24T10:03:16;15.60;99.90
18229;DHT22;9239;50.932;3.142;2023-05-24T10:05:44;15.70;99.90
18229;DHT22;9239;50.932;3.142;2023-05-24T10:08:12;15.80;99.90
18229;DHT22;9239;50.932;3.142;2023-05-24T10:10:41;15.90;99.90
18229;DHT22;9239;50.932;3.142;2023-05-24T10:13:09;16.00;99.90
18229;DHT22;9239;50.932;3.142;2023-05-24T10:15:36;16.00;99.90
18229;DHT22;9239;50.932;3.142;2023-05-24T10:18:05;16.00;99.90
18229;DHT22;9239;50.932;3.142;2023-05-24T10:20:33;16.20;99.90
18229;DHT22;9239;50.932;3.142;2023-05-24T10:23:03;16.30;99.90
18229;DHT22;9239;50.932;3.142;2023-05-24T10:25:32;16.40;99.90
18229;DHT22;9239;50.932;3.142;2023-05-24T10:28:02;16.50;99.90
18229;DHT22;9239;50.932;3.142;2023-05-24T10:30:33;16.60;99.90
18229;DHT22;9239;50.932;3.142;2023-05-24T10:33:05;16.80;99.90
18229;DHT22;9239;50.932;3.142;2023-05-24T10:35:34;16.90;99.90
18229;DHT22;9239;50.932;3.142;2023-05-24T10:38:04;16.90;99.90
18229;DHT22;9239;50.932;3.142;2023-05-24T10:40:32;16.70;99.90
18229;DHT22;9239;50.932;3.142;2023-05-24T10:43:03;16.90;99.90
18229;DHT22;9239;50.932;3.142;2023-05-24T10:45:32;17.10;99.90
18229;DHT22;9239;50.932;3.142;2023-05-24T10:51:33;16.90;99.90
18229;DHT22;9239;50.932;3.142;2023-05-24T10:54:18;16.90;99.90
18229;DHT22;9239;50.932;3.142;2023-05-24T10:56:47;17.00;99.90
18229;DHT22;9239;50.932;3.142;2023-05-24T10:59:22;17.20;99.90
18229;DHT22;9239;50.932;3.142;2023-05-24T11:01:56;17.70;99.90
18229;DHT22;9239;50.932;3.142;2023-05-24T11:04:24;17.70;99.90
18229;DHT22;9239;50.932;3.142;2023-05-24T11:06:57;17.50;99.90
18229;DHT22;9239;50.932;3.142;2023-05-24T11:09:26;17.60;99.90
18229;DHT22;9239;50.932;3.142;2023-05-24T11:11:55;17.60;99.90
18229;DHT22;9239;50.932;3.142;2023-05-24T11:14:24;17.70;99.90
18229;DHT22;9239;50.932;3.142;2023-05-24T11:16:53;17.50;99.90
18229;DHT22;9239;50.932;3.142;2023-05-24T11:19:21;17.60;99.90
18229;DHT22;9239;50.932;3.142;2023-05-24T11:21:50;17.70;99.90
18229;DHT22;9239;50.932;3.142;2023-05-24T11:24:19;17.70;99.90
18229;DHT22;9239;50.932;3.142;2023-05-24T11:26:49;17.70;99.90
18229;DHT22;9239;50.932;3.142;2023-05-24T11:29:16;17.60;99.90
18229;DHT22;9239;50.932;3.142;2023-05-24T11:31:47;17.50;99.90
18229;DHT22;9239;50.932;3.142;2023-05-24T11:34:15;17.50;99.90
18229;DHT22;9239;50.932;3.142;2023-05-24T11:36:43;17.60;99.90
18229;DHT22;9239;50.932;3.142;2023-05-24T11:39:10;17.70;99.90
18229;DHT22;9239;50.932;3.142;2023-05-24T11:41:40;17.70;99.90
18229;DHT22;9239;50.932;3.142;2023-05-24T11:44:08;17.90;99.90
18229;DHT22;9239;50.932;3.142;2023-05-24T11:46:35;18.10;99.90
18229;DHT22;9239;50.932;3.142;2023-05-24T11:49:03;18.30;99.90
18229;DHT22;9239;50.932;3.142;2023-05-24T11:51:32;18.40;99.90
18229;DHT22;9239;50.932;3.142;2023-05-24T11:53:59;18.50;99.90
18229;DHT22;9239;50.932;3.142;2023-05-24T11:56:28;18.50;99.90
18229;DHT22;9239;50.932;3.142;2023-05-24T11:59:05;18.60;99.90
18229;DHT22;9239;50.932;3.142;2023-05-24T12:01:34;18.40;99.90
18229;DHT22;9239;50.932;3.142;2023-05-24T12:04:04;18.50;99.90
18229;DHT22;9239;50.932;3.142;2023-05-24T12:06:35;18.70;99.90
18229;DHT22;9239;50.932;3.142;2023-05-24T12:09:02;18.60;99.90
18229;DHT22;9239;50.932;3.142;2023-05-24T12:11:33;18.70;99.90
18229;DHT22;9239;50.932;3.142;2023-05-24T12:14:01;18.90;99.90
18229;DHT22;9239;50.932;3.142;2023-05-24T12:16:29;18.90;99.90
18229;DHT22;9239;50.932;3.142;2023-05-24T12:18:57;18.90;99.90
18229;DHT22;9239;50.932;3.142;2023-05-24T12:21:28;18.80;99.90
18229;DHT22;9239;50.932;3.142;2023-05-24T12:23:56;18.60;99.90
18229;DHT22;9239;50.932;3.142;2023-05-24T12:26:23;18.40;99.90
18229;DHT22;9239;50.932;3.142;2023-05-24T12:28:52;18.20;99.90
18229;DHT22;9239;50.932;3.142;2023-05-24T12:31:21;18.20;99.90
18229;DHT22;9239;50.932;3.142;2023-05-24T12:33:48;18.20;99.90
18229;DHT22;9239;50.932;3.142;2023-05-24T12:36:16;18.30;99.90
18229;DHT22;9239;50.932;3.142;2023-05-24T12:38:43;18.40;99.90
18229;DHT22;9239;50.932;3.142;2023-05-24T12:41:10;18.40;99.90
18229;DHT22;9239;50.932;3.142;2023-05-24T12:43:38;18.50;99.90
18229;DHT22;9239;50.932;3.142;2023-05-24T12:46:06;18.70;99.90
18229;DHT22;9239;50.932;3.142;2023-05-24T12:48:34;18.70;99.90
18229;DHT22;9239;50.932;3.142;2023-05-24T12:51:01;18.70;99.90
18229;DHT22;9239;50.932;3.142;2023-05-24T12:53:29;18.60;99.90
18229;DHT22;9239;50.932;3.142;2023-05-24T12:55:56;18.70;99.90
18229;DHT22;9239;50.932;3.142;2023-05-24T12:58:25;18.70;99.90
18229;DHT22;9239;50.932;3.142;2023-05-24T13:00:52;18.70;99.90
18229;DHT22;9239;50.932;3.142;2023-05-24T13:03:18;18.60;99.90
18229;DHT22;9239;50.932;3.142;2023-05-24T13:05:47;18.70;99.90
18229;DHT22;9239;50.932;3.142;2023-05-24T13:08:14;18.80;99.90
18229;DHT22;9239;50.932;3.142;2023-05-24T13:10:41;18.90;99.90
18229;DHT22;9239;50.932;3.142;2023-05-24T13:13:08;18.70;99.90
18229;DHT22;9239;50.932;3.142;2023-05-24T13:15:35;18.70;99.90
18229;DHT22;9239;50.932;3.142;2023-05-24T13:18:02;18.60;99.90
18229;DHT22;9239;50.932;3.142;2023-05-24T13:20:29;18.70;99.90
18229;DHT22;9239;50.932;3.142;2023-05-24T13:22:58;18.90;99.90
18229;DHT22;9239;50.932;3.142;2023-05-24T13:25:25;19.10;99.90
18229;DHT22;9239;50.932;3.142;2023-05-24T13:27:52;19.10;99.90
18229;DHT22;9239;50.932;3.142;2023-05-24T13:30:19;19.20;99.90
18229;DHT22;9239;50.932;3.142;2023-05-24T13:32:52;19.20;99.90
18229;DHT22;9239;50.932;3.142;2023-05-24T13:35:19;19.20;99.90
18229;DHT22;9239;50.932;3.142;2023-05-24T13:37:47;19.10;99.90
18229;DHT22;9239;50.932;3.142;2023-05-24T13:40:15;18.80;99.90
18229;DHT22;9239;50.932;3.142;2023-05-24T13:42:42;18.80;99.90
18229;DHT22;9239;50.932;3.142;2023-05-24T13:45:10;18.70;99.90
18229;DHT22;9239;50.932;3.142;2023-05-24T13:47:37;18.60;99.90
18229;DHT22;9239;50.932;3.142;2023-05-24T13:50:05;18.50;99.90
18229;DHT22;9239;50.932;3.142;2023-05-24T13:52:32;18.50;99.90
18229;DHT22;9239;50.932;3.142;2023-05-24T13:55:01;18.70;99.90
18229;DHT22;9239;50.932;3.142;2023-05-24T13:57:30;18.90;99.90
18229;DHT22;9239;50.932;3.142;2023-05-24T13:59:57;18.90;99.90
18229;DHT22;9239;50.932;3.142;2023-05-24T14:02:25;19.10;99.90
18229;DHT22;9239;50.932;3.142;2023-05-24T14:04:52;18.90;99.90
18229;DHT22;9239;50.932;3.142;2023-05-24T14:07:19;18.80;99.90
18229;DHT22;9239;50.932;3.142;2023-05-24T14:09:46;18.90;99.90
18229;DHT22;9239;50.932;3.142;2023-05-24T14:12:13;19.00;99.90
18229;DHT22;9239;50.932;3.142;2023-05-24T14:14:41;19.00;99.90
18229;DHT22;9239;50.932;3.142;2023-05-24T14:17:08;18.90;99.90
18229;DHT22;9239;50.932;3.142;2023-05-24T14:19:35;18.80;99.90
18229;DHT22;9239;50.932;3.142;2023-05-24T14:22:03;18.80;99.90
18229;DHT22;9239;50.932;3.142;2023-05-24T14:24:30;18.70;99.90
18229;DHT22;9239;50.932;3.142;2023-05-24T14:26:57;18.80;99.90
18229;DHT22;9239;50.932;3.142;2023-05-24T14:29:23;18.70;99.90
18229;DHT22;9239;50.932;3.142;2023-05-24T14:31:52;18.70;99.90
18229;DHT22;9239;50.932;3.142;2023-05-24T14:34:19;18.80;99.90
18229;DHT22;9239;50.932;3.142;2023-05-24T14:36:46;18.90;99.90
18229;DHT22;9239;50.932;3.142;2023-05-24T14:39:13;18.90;99.90
18229;DHT22;9239;50.932;3.142;2023-05-24T14:41:40;18.70;99.90
18229;DHT22;9239;50.932;3.142;2023-05-24T14:44:07;18.50;99.90
18229;DHT22;9239;50.932;3.142;2023-05-24T14:46:34;18.50;99.90
18229;DHT22;9239;50.932;3.142;2023-05-24T14:49:02;18.60;99.90
18229;DHT22;9239;50.932;3.142;2023-05-24T14:51:29;18.70;99.90
18229;DHT22;9239;50.932;3.142;2023-05-24T14:53:57;18.80;99.90
18229;DHT22;9239;50.932;3.142;2023-05-24T14:56:24;18.80;99.90
18229;DHT22;9239;50.932;3.142;2023-05-24T14:58:51;18.80;99.90
18229;DHT22;9239;50.932;3.142;2023-05-24T15:01:18;18.90;99.90
18229;DHT22;9239;50.932;3.142;2023-05-24T15:03:45;19.00;99.90
18229;DHT22;9239;50.932;3.142;2023-05-24T15:06:13;19.20;99.90
18229;DHT22;9239;50.932;3.142;2023-05-24T15:08:40;19.10;99.90
18229;DHT22;9239;50.932;3.142;2023-05-24T15:11:07;18.90;99.90
18229;DHT22;9239;50.932;3.142;2023-05-24T15:13:34;18.70;99.90
18229;DHT22;9239;50.932;3.142;2023-05-24T15:16:02;18.70;99.90
18229;DHT22;9239;50.932;3.142;2023-05-24T15:18:30;18.90;99.90
18229;DHT22;9239;50.932;3.142;2023-05-24T15:20:57;18.60;99.90
18229;DHT22;9239;50.932;3.142;2023-05-24T15:23:25;18.70;99.90
18229;DHT22;9239;50.932;3.142;2023-05-24T15:25:53;18.70;99.90
18229;DHT22;9239;50.932;3.142;2023-05-24T15:28:20;18.70;99.90
18229;DHT22;9239;50.932;3.142;2023-05-24T15:30:54;18.80;99.90
18229;DHT22;9239;50.932;3.142;2023-05-24T15:33:21;19.00;99.90
18229;DHT22;9239;50.932;3.142;2023-05-24T15:35:48;18.90;99.90
18229;DHT22;9239;50.932;3.142;2023-05-24T15:38:15;18.90;99.90
18229;DHT22;9239;50.932;3.142;2023-05-24T15:40:44;19.00;99.90
18229;DHT22;9239;50.932;3.142;2023-05-24T15:43:11;19.00;99.90
18229;DHT22;9239;50.932;3.142;2023-05-24T15:45:40;18.90;99.90
18229;DHT22;9239;50.932;3.142;2023-05-24T15:48:07;18.80;99.90
18229;DHT22;9239;50.932;3.142;2023-05-24T15:50:34;18.70;99.90
18229;DHT22;9239;50.932;3.142;2023-05-24T15:53:01;18.60;99.90
18229;DHT22;9239;50.932;3.142;2023-05-24T15:55:30;18.60;99.90
18229;DHT22;9239;50.932;3.142;2023-05-24T15:58:03;18.50;99.90
18229;DHT22;9239;50.932;3.142;2023-05-24T16:00:30;18.60;99.90